createdAt,value
2022-11-21T00:01:29.887Z,88.00
2022-11-21T00:03:58.788Z,86.07
2022-11-21T00:06:27.476Z,81.63
2022-11-21T00:08:58.432Z,86.97
2022-11-21T00:11:27.012Z,87.33
2022-11-21T00:13:55.845Z,85.53
2022-11-21T00:16:24.556Z,88.27
2022-11-21T00:18:53.378Z,86.70
2022-11-21T00:21:21.961Z,92.87
2022-11-21T00:23:50.824Z,93.13
2022-11-21T00:26:20.751Z,90.03
2022-11-21T00:28:49.559Z,89.53
2022-11-21T00:31:24.134Z,96.03
2022-11-21T00:33:53.047Z,96.40
2022-11-21T00:36:21.813Z,89.33
2022-11-21T00:38:50.631Z,89.03
2022-11-21T00:41:20.665Z,93.77
2022-11-21T00:43:49.514Z,86.10
2022-11-21T00:46:18.114Z,85.63
2022-11-21T00:48:47.135Z,89.37
2022-11-21T00:51:15.713Z,88.40
2022-11-21T00:53:44.786Z,88.20
2022-11-21T00:56:13.318Z,86.13
2022-11-21T00:58:43.527Z,89.33
2022-11-21T01:01:15.517Z,90.60
2022-11-21T01:03:46.239Z,89.27
2022-11-21T01:06:16.610Z,96.13
2022-11-21T01:08:46.869Z,90.33
2022-11-21T01:11:18.103Z,87.33
2022-11-21T01:13:49.770Z,90.77
2022-11-21T01:16:22.311Z,94.60
2022-11-21T01:18:51.714Z,89.43
2022-11-21T01:21:26.404Z,89.00
2022-11-21T01:23:56.349Z,90.70
2022-11-21T01:26:28.104Z,91.30
2022-11-21T01:28:59.782Z,91.30
2022-11-21T01:31:31.375Z,89.80
2022-11-21T01:34:01.847Z,94.13
2022-11-21T01:36:33.205Z,86.73
2022-11-21T01:39:06.644Z,87.60
2022-11-21T01:41:38.827Z,91.93
2022-11-21T01:44:19.084Z,85.07
2022-11-21T01:46:48.391Z,87.47
2022-11-21T01:49:22.721Z,85.47
2022-11-21T01:51:59.510Z,87.80
2022-11-21T01:54:34.741Z,90.10
2022-11-21T01:57:08.761Z,97.93
2022-11-21T01:59:47.152Z,94.47
2022-11-21T02:02:21.672Z,94.80
2022-11-21T02:04:52.999Z,88.27
2022-11-21T02:07:25.638Z,91.53
2022-11-21T02:10:00.169Z,89.87
2022-11-21T02:12:35.042Z,88.23
2022-11-21T02:15:06.758Z,87.00
2022-11-21T02:17:35.584Z,87.37
2022-11-21T02:20:08.201Z,88.77
2022-11-21T02:22:49.316Z,92.10
2022-11-21T02:25:22.999Z,85.00
2022-11-21T02:27:57.385Z,89.30
2022-11-21T02:30:28.696Z,85.07
2022-11-21T02:32:57.409Z,88.30
2022-11-21T02:35:26.478Z,89.67
2022-11-21T02:38:00.563Z,87.93
2022-11-21T02:40:37.510Z,90.67
2022-11-21T02:43:15.870Z,84.13
2022-11-21T02:45:47.804Z,83.37
2022-11-21T02:48:17.075Z,85.40
2022-11-21T02:50:48.095Z,89.97
2022-11-21T02:53:19.959Z,80.57
2022-11-21T02:55:50.143Z,86.80
2022-11-21T02:58:19.667Z,85.73
2022-11-21T03:00:48.566Z,82.20
2022-11-21T03:03:17.132Z,80.80
2022-11-21T03:05:46.092Z,81.87
2022-11-21T03:08:14.627Z,86.43
2022-11-21T03:10:43.569Z,82.83
2022-11-21T03:13:13.519Z,86.97
2022-11-21T03:15:42.392Z,89.13
2022-11-21T03:18:10.940Z,91.73
2022-11-21T03:20:39.818Z,84.93
2022-11-21T03:23:08.373Z,85.63
2022-11-21T03:25:37.287Z,90.37
2022-11-21T03:28:06.016Z,94.53
2022-11-21T03:30:36.315Z,87.83
2022-11-21T03:33:04.891Z,85.90
2022-11-21T03:35:33.764Z,89.00
2022-11-21T03:38:02.509Z,90.77
2022-11-21T03:40:31.364Z,92.87
2022-11-21T03:43:06.422Z,86.23
2022-11-21T03:45:36.615Z,84.30
2022-11-21T03:48:05.494Z,91.20
2022-11-21T03:50:34.354Z,87.23
2022-11-21T03:53:02.900Z,84.40
2022-11-21T03:55:31.745Z,85.87
2022-11-21T03:58:00.304Z,89.23
2022-11-21T04:00:29.204Z,93.73
2022-11-21T04:02:59.453Z,87.13
2022-11-21T04:05:28.261Z,90.97
2022-11-21T04:07:56.805Z,92.97
2022-11-21T04:10:25.620Z,81.47
2022-11-21T04:12:54.174Z,83.73
2022-11-21T04:15:22.982Z,87.10
2022-11-21T04:17:51.644Z,85.30
2022-11-21T04:20:21.906Z,87.60
2022-11-21T04:22:50.451Z,91.17
2022-11-21T04:25:19.391Z,87.30
2022-11-21T04:27:47.939Z,88.43
2022-11-21T04:30:17.101Z,86.03
2022-11-21T04:32:45.650Z,93.10
2022-11-21T04:35:14.508Z,97.97
2022-11-21T04:37:44.459Z,94.13
2022-11-21T04:40:15.224Z,95.90
2022-11-21T04:42:45.218Z,95.97
2022-11-21T04:45:16.643Z,92.87
2022-11-21T04:47:47.812Z,89.73
2022-11-21T04:50:19.734Z,99.93
2022-11-21T04:52:54.620Z,81.93
2022-11-21T04:55:26.677Z,87.03
2022-11-21T04:57:55.418Z,91.87
2022-11-21T05:00:24.745Z,94.47
2022-11-21T05:02:53.417Z,93.17
2022-11-21T05:05:22.314Z,99.03
2022-11-21T05:07:52.227Z,91.73
2022-11-21T05:10:21.240Z,102.63
2022-11-21T05:13:07.541Z,98.27
2022-11-21T05:15:36.356Z,105.10
2022-11-21T05:18:05.166Z,107.67
2022-11-21T05:20:36.832Z,113.17
2022-11-21T05:23:07.049Z,105.30
2022-11-21T05:25:36.037Z,105.37
2022-11-21T05:28:04.614Z,97.77
2022-11-21T05:30:33.449Z,104.67
2022-11-21T05:33:02.031Z,98.90
2022-11-21T05:35:30.974Z,100.97
2022-11-21T05:38:00.041Z,97.37
2022-11-21T05:40:30.373Z,100.17
2022-11-21T05:43:16.574Z,98.37
2022-11-21T05:45:45.451Z,90.50
2022-11-21T05:48:14.016Z,100.80
2022-11-21T05:50:42.855Z,109.47
2022-11-21T05:53:11.487Z,92.80
2022-11-21T05:55:41.666Z,108.43
2022-11-21T05:58:10.947Z,99.37
2022-11-21T06:00:40.255Z,99.47
2022-11-21T06:03:28.696Z,98.73
2022-11-21T06:06:06.357Z,99.27
2022-11-21T06:08:37.467Z,92.30
2022-11-21T06:11:10.335Z,105.20
2022-11-21T06:13:39.853Z,101.33
2022-11-21T06:16:12.342Z,94.47
2022-11-21T06:18:43.831Z,103.87
2022-11-21T06:21:16.625Z,94.93
2022-11-21T06:23:46.407Z,101.70
2022-11-21T06:26:19.097Z,101.23
2022-11-21T06:28:48.975Z,95.00
2022-11-21T06:31:20.296Z,105.30
2022-11-21T06:33:52.403Z,104.60
2022-11-21T06:36:21.462Z,107.73
2022-11-21T06:38:50.216Z,112.33
2022-11-21T06:41:22.479Z,106.17
2022-11-21T06:43:51.432Z,109.57
2022-11-21T06:46:20.516Z,95.23
2022-11-21T06:48:49.182Z,95.07
2022-11-21T06:51:21.348Z,97.90
2022-11-21T06:53:55.887Z,94.03
2022-11-21T06:56:27.739Z,91.30
2022-11-21T06:58:56.871Z,88.00
2022-11-21T07:01:26.207Z,90.13
2022-11-21T07:03:55.394Z,91.67
2022-11-21T07:06:25.428Z,90.87
2022-11-21T07:09:25.390Z,86.40
2022-11-21T07:11:45.782Z,88.13
2022-11-21T07:14:13.406Z,92.93
2022-11-21T07:16:42.277Z,84.87
2022-11-21T07:19:11.789Z,84.03
2022-11-21T07:21:40.628Z,84.17
2022-11-21T07:24:09.378Z,84.27
2022-11-21T07:26:38.212Z,83.80
2022-11-21T07:29:08.287Z,81.97
2022-11-21T07:31:37.270Z,85.60
2022-11-21T07:34:05.816Z,83.00
2022-11-21T07:36:36.181Z,86.17
2022-11-21T07:39:06.525Z,84.37
2022-11-21T07:41:35.497Z,86.23
2022-11-21T07:44:04.403Z,85.77
2022-11-21T07:46:34.717Z,91.67
2022-11-21T07:49:03.827Z,87.87
2022-11-21T07:51:32.835Z,85.97
2022-11-21T07:54:01.382Z,86.87
2022-11-21T07:56:30.227Z,80.10
2022-11-21T07:58:58.769Z,82.43
2022-11-21T08:01:27.910Z,77.87
2022-11-21T08:03:57.836Z,79.73
2022-11-21T08:06:26.696Z,76.80
2022-11-21T08:08:55.969Z,90.33
2022-11-21T08:11:25.884Z,79.33
2022-11-21T08:13:54.466Z,77.50
2022-11-21T08:16:27.996Z,76.80
2022-11-21T08:18:57.935Z,71.70
2022-11-21T08:21:27.219Z,68.97
2022-11-21T08:23:55.930Z,67.40
2022-11-21T08:26:24.797Z,72.77
2022-11-21T08:28:58.484Z,67.60
2022-11-21T08:31:28.696Z,67.60
2022-11-21T08:33:58.871Z,68.50
2022-11-21T08:36:27.740Z,67.67
2022-11-21T08:38:56.331Z,64.30
2022-11-21T08:41:42.509Z,64.10
2022-11-21T08:44:14.073Z,62.70
2022-11-21T08:46:43.466Z,57.20
2022-11-21T08:49:13.425Z,59.37
2022-11-21T08:51:42.623Z,64.80
2022-11-21T08:54:11.199Z,59.47
2022-11-21T08:56:40.092Z,59.17
2022-11-21T08:59:08.670Z,60.57
2022-11-21T09:01:37.906Z,57.63
2022-11-21T09:04:07.127Z,59.43
2022-11-21T09:06:37.721Z,59.27
2022-11-21T09:09:07.733Z,53.40
2022-11-21T09:11:37.838Z,62.13
2022-11-21T09:14:24.051Z,54.57
2022-11-21T09:17:10.404Z,52.93
2022-11-21T09:19:38.964Z,56.63
2022-11-21T09:22:09.199Z,49.23
2022-11-21T09:24:37.777Z,55.67
2022-11-21T09:27:06.709Z,55.07
2022-11-21T09:29:35.416Z,57.73
2022-11-21T09:32:04.304Z,50.87
2022-11-21T09:34:32.894Z,51.83
2022-11-21T09:37:01.717Z,54.87
2022-11-21T09:39:31.673Z,56.17
2022-11-21T09:42:29.695Z,55.87
2022-11-21T09:45:11.900Z,57.97
2022-11-21T09:47:46.802Z,54.30
2022-11-21T09:50:30.347Z,53.67
2022-11-21T09:53:06.144Z,49.23
2022-11-21T09:55:47.265Z,48.00
2022-11-21T09:58:27.370Z,54.10
2022-11-21T10:00:56.451Z,51.80
2022-11-21T10:03:30.905Z,45.97
2022-11-21T10:06:06.119Z,50.67
2022-11-21T10:08:48.792Z,46.73
2022-11-21T10:12:02.712Z,50.97
2022-11-21T10:14:52.635Z,43.83
2022-11-21T10:17:39.120Z,48.13
2022-11-21T10:20:31.680Z,53.50
2022-11-21T10:23:35.502Z,54.80
2022-11-21T10:26:17.748Z,51.87
2022-11-21T10:28:56.642Z,52.80
2022-11-21T10:31:30.686Z,52.10
2022-11-21T10:34:03.693Z,56.63
2022-11-21T10:36:39.145Z,52.13
2022-11-21T10:39:19.374Z,51.70
2022-11-21T10:41:56.973Z,48.50
2022-11-21T10:44:47.971Z,51.53
2022-11-21T10:47:28.391Z,46.47
2022-11-21T10:50:13.806Z,52.57
2022-11-21T10:52:50.346Z,47.47
2022-11-21T10:55:20.138Z,50.90
2022-11-21T10:57:51.400Z,51.30
2022-11-21T11:00:26.621Z,49.60
2022-11-21T11:03:06.890Z,49.83
2022-11-21T11:05:37.485Z,47.73
2022-11-21T11:08:09.949Z,46.60
2022-11-21T11:10:40.983Z,50.50
2022-11-21T11:13:50.868Z,48.03
2022-11-21T11:16:24.083Z,53.83
2022-11-21T11:19:00.339Z,52.43
2022-11-21T11:21:31.572Z,58.23
2022-11-21T11:24:29.493Z,59.77
2022-11-21T11:27:02.664Z,60.42
2022-11-21T11:29:35.321Z,59.50
2022-11-21T11:32:21.170Z,55.47
2022-11-21T11:35:01.028Z,57.17
2022-11-21T11:37:40.380Z,60.83
2022-11-21T11:40:25.769Z,55.50
2022-11-21T11:43:31.915Z,55.30
2022-11-21T11:46:40.328Z,51.47
2022-11-21T11:49:21.253Z,59.30
2022-11-21T11:51:56.164Z,51.40
2022-11-21T11:54:33.825Z,58.08
2022-11-21T11:57:05.607Z,54.60
2022-11-21T11:59:42.125Z,55.57
2022-11-21T12:02:23.132Z,59.90
2022-11-21T12:05:02.828Z,53.93
2022-11-21T12:08:38.982Z,54.90
2022-11-21T12:10:58.720Z,51.73
2022-11-21T12:13:32.292Z,50.33
2022-11-21T12:16:13.156Z,53.17
2022-11-21T12:18:54.390Z,56.47
2022-11-21T12:21:24.757Z,58.88
2022-11-21T12:23:56.392Z,56.40
2022-11-21T12:26:45.013Z,51.80
2022-11-21T12:29:32.837Z,57.67
2022-11-21T12:32:38.608Z,53.90
2022-11-21T12:35:43.519Z,60.83
2022-11-21T12:38:32.343Z,56.17
2022-11-21T12:41:29.452Z,57.90
2022-11-21T12:44:14.817Z,57.27
2022-11-21T12:46:56.130Z,55.57
2022-11-21T12:49:59.530Z,58.47
2022-11-21T12:52:57.357Z,61.43
2022-11-21T12:55:39.136Z,56.87
2022-11-21T12:58:22.055Z,58.87
2022-11-21T13:01:21.932Z,55.97
2022-11-21T13:04:02.229Z,59.47
2022-11-21T13:06:38.680Z,63.90
2022-11-21T13:09:15.059Z,64.13
2022-11-21T13:12:01.558Z,58.80
2022-11-21T13:14:45.630Z,57.27
2022-11-21T13:17:37.193Z,60.97
2022-11-21T13:20:19.242Z,57.47
2022-11-21T13:22:53.870Z,56.37
2022-11-21T13:25:48.238Z,61.97
2022-11-21T13:28:38.139Z,62.03
2022-11-21T13:31:33.587Z,63.03
2022-11-21T13:34:03.393Z,60.03
2022-11-21T13:36:43.272Z,60.33
2022-11-21T13:39:37.727Z,64.43
2022-11-21T13:42:30.134Z,65.10
2022-11-21T13:45:43.671Z,63.90
2022-11-21T13:48:36.540Z,60.83
2022-11-21T13:51:52.226Z,60.47
2022-11-21T13:55:15.999Z,64.50
2022-11-21T13:58:08.817Z,64.97
2022-11-21T14:01:03.440Z,63.03
2022-11-21T14:04:03.335Z,65.57
2022-11-21T14:06:38.167Z,61.73
2022-11-21T14:09:25.511Z,67.07
2022-11-21T14:11:59.503Z,64.70
2022-11-21T14:14:38.404Z,68.73
2022-11-21T14:17:30.796Z,61.10
2022-11-21T14:20:08.728Z,68.27
2022-11-21T14:22:45.620Z,67.07
2022-11-21T14:25:21.089Z,63.30
2022-11-21T14:27:55.372Z,70.00
2022-11-21T14:30:31.660Z,62.70
2022-11-21T14:33:23.853Z,66.57
2022-11-21T14:35:57.041Z,68.57
2022-11-21T14:38:27.515Z,64.93
2022-11-21T14:41:28.048Z,67.47
2022-11-21T14:44:15.597Z,66.93
2022-11-21T14:46:47.337Z,65.03
2022-11-21T14:49:29.321Z,57.77
2022-11-21T14:52:16.848Z,67.87
2022-11-21T14:55:22.204Z,65.67
2022-11-21T14:57:44.540Z,66.47
2022-11-21T15:00:51.546Z,69.70
2022-11-21T15:03:21.192Z,69.87
2022-11-21T15:06:04.421Z,70.43
2022-11-21T15:11:31.098Z,71.77
2022-11-21T15:14:17.031Z,67.63
2022-11-21T15:16:50.664Z,74.13
2022-11-21T15:19:23.733Z,76.83
2022-11-21T15:21:57.499Z,81.07
2022-11-21T15:24:37.495Z,84.73
2022-11-21T15:27:32.575Z,75.07
2022-11-21T15:30:21.313Z,86.23
2022-11-21T15:33:05.040Z,84.83
2022-11-21T15:35:50.444Z,81.53
2022-11-21T15:38:30.457Z,80.07
2022-11-21T15:41:29.030Z,83.33
2022-11-21T15:44:21.782Z,87.53
2022-11-21T15:46:53.540Z,89.83
2022-11-21T15:49:33.033Z,84.93
2022-11-21T15:52:10.191Z,84.40
2022-11-21T15:54:40.595Z,87.30
2022-11-21T15:57:10.035Z,83.63
2022-11-21T15:59:38.923Z,85.00
2022-11-21T16:02:07.698Z,91.43
2022-11-21T16:04:36.585Z,83.17
2022-11-21T16:07:05.258Z,81.00
2022-11-21T16:09:34.170Z,85.40
2022-11-21T16:12:04.164Z,83.97
2022-11-21T16:14:32.999Z,81.50
2022-11-21T16:17:01.539Z,84.03
2022-11-21T16:19:31.139Z,81.00
2022-11-21T16:21:59.932Z,81.80
2022-11-21T16:24:28.952Z,83.10
2022-11-21T16:26:57.644Z,82.73
2022-11-21T16:29:28.096Z,84.47
2022-11-21T16:31:56.954Z,77.07
2022-11-21T16:34:27.472Z,84.87
2022-11-21T16:36:56.505Z,85.23
2022-11-21T16:39:25.496Z,86.40
2022-11-21T16:41:54.079Z,86.23
2022-11-21T16:44:22.912Z,81.63
2022-11-21T16:46:54.886Z,82.43
2022-11-21T16:49:24.745Z,84.90
2022-11-21T16:51:53.330Z,87.40
2022-11-21T16:54:22.432Z,83.70
2022-11-21T16:56:50.946Z,80.47
2022-11-21T16:59:19.802Z,82.77
2022-11-21T17:01:48.458Z,84.87
2022-11-21T17:04:19.014Z,79.00
2022-11-21T17:06:48.975Z,82.13
2022-11-21T17:09:18.217Z,87.50
2022-11-21T17:11:46.978Z,81.70
2022-11-21T17:14:16.096Z,89.00
2022-11-21T17:16:45.782Z,86.23
2022-11-21T17:19:16.287Z,86.87
2022-11-21T17:21:46.296Z,88.23
2022-11-21T17:24:15.543Z,83.40
2022-11-21T17:26:44.106Z,85.93
2022-11-21T17:29:13.031Z,80.03
2022-11-21T17:31:42.762Z,80.60
2022-11-21T17:34:11.792Z,81.47
2022-11-21T17:36:40.330Z,82.77
2022-11-21T17:39:12.735Z,85.57
2022-11-21T17:41:41.384Z,86.37
2022-11-21T17:44:16.396Z,83.47
2022-11-21T17:46:45.116Z,81.63
2022-11-21T17:49:14.642Z,82.57
2022-11-21T17:51:43.988Z,76.60
2022-11-21T17:54:14.620Z,77.67
2022-11-21T17:56:46.588Z,78.87
2022-11-21T17:59:18.172Z,81.27
2022-11-21T18:01:46.816Z,79.33
2022-11-21T18:04:17.796Z,76.10
2022-11-21T18:06:47.115Z,75.40
2022-11-21T18:09:17.914Z,80.73
2022-11-21T18:11:46.554Z,78.07
2022-11-21T18:14:15.848Z,76.33
2022-11-21T18:16:50.688Z,74.93
2022-11-21T18:19:22.215Z,83.33
2022-11-21T18:21:51.867Z,78.00
2022-11-21T18:24:22.047Z,76.47
2022-11-21T18:26:50.677Z,73.97
2022-11-21T18:29:35.723Z,77.37
2022-11-21T18:32:06.996Z,69.23
2022-11-21T18:34:35.915Z,76.50
2022-11-21T18:37:04.618Z,74.50
2022-11-21T18:39:34.870Z,73.93
2022-11-21T18:42:03.550Z,73.87
2022-11-21T18:44:32.443Z,73.93
2022-11-21T18:47:01.100Z,83.63
2022-11-21T18:49:30.192Z,76.70
2022-11-21T18:51:59.653Z,79.23
2022-11-21T18:54:28.569Z,74.53
2022-11-21T18:56:58.540Z,74.87
2022-11-21T18:59:27.864Z,80.37
2022-11-21T19:01:56.761Z,76.90
2022-11-21T19:04:25.892Z,75.07
2022-11-21T19:06:54.439Z,76.77
2022-11-21T19:09:26.823Z,71.43
2022-11-21T19:11:59.429Z,69.90
2022-11-21T19:14:28.568Z,81.17
2022-11-21T19:16:57.533Z,73.07
2022-11-21T19:19:34.136Z,68.47
2022-11-21T19:22:04.787Z,69.73
2022-11-21T19:24:33.978Z,74.30
2022-11-21T19:27:03.860Z,64.73
2022-11-21T19:29:33.196Z,66.90
2022-11-21T19:32:01.810Z,66.47
2022-11-21T19:34:30.632Z,66.60
2022-11-21T19:36:59.173Z,65.97
2022-11-21T19:39:28.410Z,69.47
2022-11-21T19:41:57.245Z,67.03
2022-11-21T19:44:27.391Z,71.10
2022-11-21T19:46:55.966Z,64.10
2022-11-21T19:49:24.962Z,63.27
2022-11-21T19:51:53.544Z,64.87
2022-11-21T19:54:22.435Z,64.43
2022-11-21T19:56:51.185Z,71.77
2022-11-21T19:59:20.136Z,68.30
2022-11-21T20:01:52.912Z,66.10
2022-11-21T20:04:22.312Z,63.23
2022-11-21T20:06:51.838Z,61.73
2022-11-21T20:09:22.723Z,66.60
2022-11-21T20:11:53.616Z,64.87
2022-11-21T20:14:23.130Z,62.70
2022-11-21T20:16:54.031Z,61.40
2022-11-21T20:19:26.810Z,61.23
2022-11-21T20:21:56.224Z,64.40
2022-11-21T20:24:25.057Z,62.67
2022-11-21T20:26:54.224Z,60.23
2022-11-21T20:29:23.269Z,62.40
2022-11-21T20:31:54.272Z,62.73
2022-11-21T20:34:23.742Z,61.97
2022-11-21T20:36:52.330Z,60.10
2022-11-21T20:39:21.524Z,59.27
2022-11-21T20:41:50.129Z,59.60
2022-11-21T20:47:12.148Z,66.00
2022-11-21T20:49:41.042Z,63.30
2022-11-21T20:53:44.025Z,64.23
2022-11-21T20:54:58.542Z,69.60
2022-11-21T20:57:27.614Z,59.90
2022-11-21T20:59:56.540Z,67.63
2022-11-21T21:02:26.480Z,66.67
2022-11-21T21:04:55.324Z,66.03
2022-11-21T21:07:24.008Z,68.90
2022-11-21T21:09:53.591Z,65.67
2022-11-21T21:12:22.173Z,68.20
2022-11-21T21:14:51.019Z,72.40
2022-11-21T21:17:19.587Z,65.43
2022-11-21T21:19:49.856Z,67.23
2022-11-21T21:22:18.477Z,70.20
2022-11-21T21:24:47.379Z,62.73
2022-11-21T21:27:15.908Z,62.60
2022-11-21T21:29:44.775Z,66.17
2022-11-21T21:32:13.467Z,66.63
2022-11-21T21:34:42.277Z,65.27
2022-11-21T21:37:12.184Z,61.70
2022-11-21T21:39:41.058Z,59.80
2022-11-21T21:42:09.610Z,60.73
2022-11-21T21:44:38.819Z,60.27
2022-11-21T21:47:11.170Z,58.90
2022-11-21T21:49:39.997Z,59.20
2022-11-21T21:52:08.747Z,55.67
2022-11-21T21:54:38.929Z,64.43
2022-11-21T21:57:07.501Z,58.53
2022-11-21T21:59:36.701Z,63.23
2022-11-21T22:02:05.425Z,60.27
2022-11-21T22:04:34.271Z,61.10
2022-11-21T22:07:03.470Z,57.83
2022-11-21T22:09:32.544Z,61.43
2022-11-21T22:12:02.689Z,60.70
2022-11-21T22:14:31.829Z,60.73
2022-11-21T22:17:00.508Z,60.97
2022-11-21T22:19:29.862Z,60.13
2022-11-21T22:21:58.669Z,59.90
2022-11-21T22:24:27.807Z,64.47
2022-11-21T22:26:56.806Z,63.17
2022-11-21T22:29:27.158Z,62.30
2022-11-21T22:31:55.744Z,59.07
2022-11-21T22:34:25.063Z,60.47
2022-11-21T22:36:53.691Z,60.80
2022-11-21T22:39:22.572Z,58.10
2022-11-21T22:41:53.580Z,59.23
2022-11-21T22:44:25.907Z,60.17
2022-11-21T22:46:54.540Z,62.13
2022-11-21T22:49:23.423Z,60.60
2022-11-21T22:51:52.047Z,61.60
2022-11-21T22:54:20.978Z,55.83
2022-11-21T22:56:49.515Z,64.73
2022-11-21T22:59:18.399Z,62.10
2022-11-21T23:01:48.367Z,60.67
2022-11-21T23:04:30.083Z,58.10
2022-11-21T23:06:58.690Z,57.67
2022-11-21T23:09:27.786Z,59.63
2022-11-21T23:11:56.616Z,57.50
2022-11-21T23:14:25.459Z,53.77
2022-11-21T23:16:55.473Z,59.23
2022-11-21T23:19:24.322Z,59.33
2022-11-21T23:21:52.846Z,57.87
2022-11-21T23:24:21.670Z,58.67
2022-11-21T23:26:50.275Z,58.23
2022-11-21T23:29:19.088Z,55.90
2022-11-21T23:31:47.699Z,54.27
2022-11-21T23:34:17.889Z,56.10
2022-11-21T23:36:46.464Z,55.80
2022-11-21T23:39:15.348Z,56.07
2022-11-21T23:41:43.891Z,52.37
2022-11-21T23:44:12.689Z,53.90
2022-11-21T23:46:41.299Z,57.23
2022-11-21T23:49:10.094Z,56.03
2022-11-21T23:51:39.999Z,54.60
2022-11-21T23:54:08.852Z,58.00
2022-11-21T23:56:37.436Z,55.70
2022-11-21T23:59:06.257Z,55.57
